createdAt,value
2023-03-06T00:01:32.422Z,62.83
2023-03-06T00:04:04.649Z,63.26
2023-03-06T00:06:39.098Z,63.16
2023-03-06T00:09:11.065Z,62.86
2023-03-06T00:11:45.768Z,62.70
2023-03-06T00:14:23.393Z,63.29
2023-03-06T00:16:59.155Z,62.28
2023-03-06T00:19:31.907Z,63.32
2023-03-06T00:22:03.706Z,62.65
2023-03-06T00:24:35.687Z,62.80
2023-03-06T00:27:08.316Z,63.13
2023-03-06T00:29:42.704Z,62.90
2023-03-06T00:32:15.769Z,63.07
2023-03-06T00:34:52.447Z,62.72
2023-03-06T00:37:25.396Z,62.33
2023-03-06T00:39:57.340Z,63.00
2023-03-06T00:42:29.393Z,62.54
2023-03-06T00:45:07.529Z,63.05
2023-03-06T00:47:40.476Z,62.39
2023-03-06T00:50:15.206Z,62.41
2023-03-06T00:52:47.008Z,62.73
2023-03-06T00:55:21.671Z,62.81
2023-03-06T00:57:56.628Z,62.45
2023-03-06T01:00:28.749Z,63.10
2023-03-06T01:03:06.238Z,62.40
2023-03-06T01:05:38.873Z,63.13
2023-03-06T01:08:14.944Z,62.25
2023-03-06T01:10:46.757Z,63.10
2023-03-06T01:13:25.236Z,62.88
2023-03-06T01:16:09.047Z,62.85
2023-03-06T01:18:44.035Z,62.89
2023-03-06T01:21:16.924Z,62.27
2023-03-06T01:23:49.060Z,62.80
2023-03-06T01:26:24.234Z,62.50
2023-03-06T01:28:59.686Z,62.17
2023-03-06T01:31:33.696Z,62.30
2023-03-06T01:34:05.582Z,62.32
2023-03-06T01:36:37.754Z,62.50
2023-03-06T01:39:10.617Z,62.42
2023-03-06T01:41:42.467Z,62.01
2023-03-06T01:44:14.977Z,62.28
2023-03-06T01:46:47.148Z,62.23
2023-03-06T01:49:22.573Z,62.60
2023-03-06T01:52:02.621Z,62.41
2023-03-06T01:54:51.705Z,62.65
2023-03-06T01:57:36.613Z,62.63
2023-03-06T02:00:11.156Z,62.81
2023-03-06T02:03:06.002Z,62.65
2023-03-06T02:05:39.472Z,62.46
2023-03-06T02:08:18.985Z,62.50
2023-03-06T02:11:15.360Z,62.45
2023-03-06T02:13:49.079Z,62.09
2023-03-06T02:16:25.850Z,62.49
2023-03-06T02:19:01.441Z,61.98
2023-03-06T02:21:36.229Z,62.51
2023-03-06T02:24:22.548Z,62.64
2023-03-06T02:26:56.381Z,62.83
2023-03-06T02:29:32.246Z,62.54
2023-03-06T02:32:07.502Z,62.81
2023-03-06T02:34:41.979Z,62.89
2023-03-06T02:37:14.122Z,62.57
2023-03-06T02:39:52.171Z,62.81
2023-03-06T02:42:28.982Z,62.60
2023-03-06T02:45:03.695Z,63.06
2023-03-06T02:47:35.541Z,62.50
2023-03-06T02:50:07.760Z,62.82
2023-03-06T02:52:39.621Z,62.61
2023-03-06T02:55:11.712Z,62.43
2023-03-06T02:57:43.666Z,62.55
2023-03-06T03:00:19.236Z,62.58
2023-03-06T03:02:51.572Z,62.67
2023-03-06T03:05:24.996Z,62.83
2023-03-06T03:08:04.366Z,62.79
2023-03-06T03:10:36.277Z,62.98
2023-03-06T03:13:09.134Z,62.72
2023-03-06T03:15:44.425Z,62.51
2023-03-06T03:18:16.255Z,62.41
2023-03-06T03:20:48.043Z,62.79
2023-03-06T03:23:19.894Z,62.75
2023-03-06T03:25:51.939Z,62.97
2023-03-06T03:28:26.285Z,62.75
2023-03-06T03:31:07.656Z,63.11
2023-03-06T03:33:43.927Z,62.69
2023-03-06T03:36:18.284Z,62.91
2023-03-06T03:38:56.042Z,62.45
2023-03-06T03:41:27.871Z,62.73
2023-03-06T03:44:08.973Z,62.83
2023-03-06T03:46:44.619Z,62.80
2023-03-06T03:49:22.163Z,62.55
2023-03-06T03:51:54.226Z,63.32
2023-03-06T03:54:27.549Z,62.98
2023-03-06T03:57:00.449Z,63.21
2023-03-06T03:59:37.634Z,63.23
2023-03-06T04:02:22.279Z,63.36
2023-03-06T04:05:02.642Z,63.45
2023-03-06T04:07:34.570Z,62.88
2023-03-06T04:10:11.473Z,63.45
2023-03-06T04:12:43.300Z,63.19
2023-03-06T04:15:23.167Z,63.57
2023-03-06T04:17:56.231Z,63.46
2023-03-06T04:20:32.505Z,63.58
2023-03-06T04:23:05.664Z,63.88
2023-03-06T04:25:39.139Z,63.59
2023-03-06T04:28:16.961Z,63.46
2023-03-06T04:30:52.538Z,64.27
2023-03-06T04:33:25.907Z,64.16
2023-03-06T04:35:59.406Z,63.74
2023-03-06T04:38:34.731Z,63.95
2023-03-06T04:41:09.268Z,63.54
2023-03-06T04:43:44.252Z,64.13
2023-03-06T04:46:16.183Z,64.15
2023-03-06T04:48:48.040Z,63.72
2023-03-06T04:51:19.828Z,64.01
2023-03-06T04:53:52.423Z,64.45
2023-03-06T04:56:24.349Z,64.30
2023-03-06T04:59:06.339Z,63.91
2023-03-06T05:01:38.164Z,64.14
2023-03-06T05:04:34.916Z,64.62
2023-03-06T05:07:06.620Z,64.11
2023-03-06T05:09:39.207Z,64.55
2023-03-06T05:12:11.060Z,64.34
2023-03-06T05:14:43.901Z,64.21
2023-03-06T05:17:21.833Z,64.18
2023-03-06T05:19:54.867Z,63.80
2023-03-06T05:22:26.763Z,64.46
2023-03-06T05:24:58.633Z,64.51
2023-03-06T05:27:33.587Z,64.53
2023-03-06T05:30:05.476Z,64.40
2023-03-06T05:32:41.624Z,64.28
2023-03-06T05:35:21.894Z,64.16
2023-03-06T05:37:53.709Z,64.29
2023-03-06T05:40:26.115Z,64.02
2023-03-06T05:42:58.060Z,64.72
2023-03-06T05:45:29.851Z,65.11
2023-03-06T05:48:01.967Z,64.77
2023-03-06T05:50:33.889Z,64.92
2023-03-06T05:53:09.720Z,64.55
2023-03-06T05:55:41.734Z,64.64
2023-03-06T05:58:13.496Z,64.76
2023-03-06T06:00:45.315Z,64.75
2023-03-06T06:03:17.076Z,64.58
2023-03-06T06:08:45.330Z,63.71
2023-03-06T06:11:18.560Z,63.76
2023-03-06T06:13:50.516Z,63.35
2023-03-06T06:16:22.571Z,63.08
2023-03-06T06:18:54.405Z,62.97
2023-03-06T06:21:26.206Z,62.44
2023-03-06T06:23:58.010Z,62.24
2023-03-06T06:26:30.432Z,61.93
2023-03-06T06:29:04.638Z,62.00
2023-03-06T06:31:46.781Z,62.04
2023-03-06T06:34:19.191Z,61.77
2023-03-06T06:36:53.504Z,61.86
2023-03-06T06:39:25.619Z,61.69
2023-03-06T06:42:21.719Z,61.64
2023-03-06T06:44:55.032Z,61.70
2023-03-06T06:47:28.861Z,61.25
2023-03-06T06:50:00.748Z,61.29
2023-03-06T06:52:35.088Z,60.83
2023-03-06T06:55:08.115Z,59.79
2023-03-06T06:57:42.067Z,58.35
2023-03-06T07:00:16.923Z,57.35
2023-03-06T07:02:49.429Z,56.87
2023-03-06T07:05:22.187Z,56.42
2023-03-06T07:07:54.107Z,57.04
2023-03-06T07:10:28.968Z,57.51
2023-03-06T07:13:01.755Z,57.36
2023-03-06T07:15:34.116Z,56.12
2023-03-06T07:18:11.250Z,57.31
2023-03-06T07:20:43.362Z,56.79
2023-03-06T07:23:18.339Z,57.04
2023-03-06T07:25:51.314Z,57.30
2023-03-06T07:28:23.877Z,57.32
2023-03-06T07:30:55.859Z,57.76
2023-03-06T07:33:31.104Z,57.50
2023-03-06T07:36:04.040Z,57.91
2023-03-06T07:38:36.086Z,57.80
2023-03-06T07:41:13.348Z,57.79
2023-03-06T07:43:46.509Z,58.07
2023-03-06T07:46:18.559Z,58.10
2023-03-06T07:48:50.797Z,58.24
2023-03-06T07:51:23.020Z,59.12
2023-03-06T07:53:54.928Z,58.65
2023-03-06T07:56:26.852Z,58.32
2023-03-06T07:58:58.668Z,59.10
2023-03-06T08:01:31.779Z,58.97
2023-03-06T08:04:03.828Z,58.37
2023-03-06T08:06:35.761Z,58.43
2023-03-06T08:09:08.699Z,59.12
2023-03-06T08:11:41.408Z,58.94
2023-03-06T08:14:16.540Z,59.23
2023-03-06T08:16:53.210Z,58.99
2023-03-06T08:19:25.054Z,58.96
2023-03-06T08:21:59.897Z,58.63
2023-03-06T08:24:33.021Z,58.71
2023-03-06T08:27:04.914Z,58.63
2023-03-06T08:29:36.796Z,58.37
2023-03-06T08:32:12.320Z,59.08
2023-03-06T08:34:46.168Z,58.73
2023-03-06T08:37:21.982Z,58.72
2023-03-06T08:39:53.887Z,58.63
2023-03-06T08:42:25.727Z,58.08
2023-03-06T08:44:57.712Z,58.25
2023-03-06T08:47:29.563Z,58.63
2023-03-06T08:50:01.640Z,58.73
2023-03-06T08:52:33.451Z,57.70
2023-03-06T08:55:07.220Z,58.47
2023-03-06T08:57:39.225Z,58.15
2023-03-06T09:00:15.377Z,58.72
2023-03-06T09:02:47.489Z,57.94
2023-03-06T09:05:20.441Z,57.95
2023-03-06T09:07:55.236Z,57.73
2023-03-06T09:10:30.052Z,57.12
2023-03-06T09:13:03.876Z,56.86
2023-03-06T09:15:43.013Z,57.00
2023-03-06T09:18:17.746Z,57.07
2023-03-06T09:20:52.316Z,56.77
2023-03-06T09:23:24.353Z,56.22
2023-03-06T09:25:58.763Z,55.97
2023-03-06T09:28:30.791Z,65.34
2023-03-06T09:31:12.050Z,56.82
2023-03-06T09:33:45.069Z,55.73
2023-03-06T09:36:22.641Z,54.60
2023-03-06T09:38:54.664Z,54.17
2023-03-06T09:41:32.161Z,53.61
2023-03-06T09:44:18.004Z,53.32
2023-03-06T09:46:58.942Z,53.31
2023-03-06T09:49:38.742Z,52.71
2023-03-06T09:52:31.975Z,52.73
2023-03-06T09:55:41.075Z,53.07
2023-03-06T09:58:27.386Z,53.29
2023-03-06T10:01:15.980Z,52.95
2023-03-06T10:04:32.174Z,53.12
2023-03-06T10:07:27.781Z,53.28
2023-03-06T10:10:06.855Z,53.38
2023-03-06T10:12:53.508Z,53.52
2023-03-06T10:15:32.447Z,53.67
2023-03-06T10:18:05.474Z,53.24
2023-03-06T10:20:52.640Z,53.54
2023-03-06T10:23:39.854Z,53.68
2023-03-06T10:26:22.908Z,54.17
2023-03-06T10:29:02.579Z,54.08
2023-03-06T10:31:34.911Z,54.33
2023-03-06T10:34:22.786Z,54.57
2023-03-06T10:36:58.607Z,55.53
2023-03-06T10:39:33.387Z,56.83
2023-03-06T10:42:10.745Z,57.19
2023-03-06T10:44:44.355Z,57.63
2023-03-06T10:47:31.934Z,57.78
2023-03-06T10:50:27.319Z,57.57
2023-03-06T10:53:06.449Z,57.13
2023-03-06T10:55:42.679Z,57.58
2023-03-06T10:58:40.695Z,57.33
2023-03-06T11:01:21.659Z,57.19
2023-03-06T11:03:54.229Z,56.61
2023-03-06T11:06:35.163Z,56.76
2023-03-06T11:09:16.034Z,56.44
2023-03-06T11:11:48.028Z,56.53
2023-03-06T11:14:27.433Z,56.16
2023-03-06T11:17:01.414Z,56.06
2023-03-06T11:19:33.736Z,55.63
2023-03-06T11:22:21.111Z,55.67
2023-03-06T11:24:55.523Z,55.38
2023-03-06T11:27:38.186Z,55.87
2023-03-06T11:30:26.430Z,62.96
2023-03-06T11:33:08.882Z,55.93
2023-03-06T11:35:51.018Z,54.77
2023-03-06T11:38:37.978Z,53.85
2023-03-06T11:41:47.289Z,54.24
2023-03-06T11:44:24.393Z,54.37
2023-03-06T11:50:15.269Z,53.89
2023-03-06T11:52:58.759Z,54.27
2023-03-06T11:55:44.157Z,54.50
2023-03-06T11:58:44.302Z,54.44
2023-03-06T12:01:31.313Z,54.55
2023-03-06T12:04:36.538Z,54.62
2023-03-06T12:07:21.438Z,54.44
2023-03-06T12:10:08.523Z,54.03
2023-03-06T12:13:01.977Z,53.46
2023-03-06T12:15:53.942Z,52.23
2023-03-06T12:19:02.142Z,50.38
2023-03-06T12:21:47.331Z,50.95
2023-03-06T12:24:30.046Z,50.89
2023-03-06T12:27:25.865Z,50.55
2023-03-06T12:30:26.056Z,50.29
2023-03-06T12:33:28.714Z,50.56
2023-03-06T12:36:44.269Z,49.94
2023-03-06T12:39:54.104Z,49.30
2023-03-06T12:43:08.047Z,49.20
2023-03-06T12:45:44.337Z,49.46
2023-03-06T12:48:26.920Z,49.06
2023-03-06T12:51:03.194Z,48.22
2023-03-06T12:53:37.279Z,48.56
2023-03-06T12:56:13.643Z,47.91
2023-03-06T12:58:56.801Z,46.66
2023-03-06T13:02:00.489Z,46.52
2023-03-06T13:04:53.907Z,46.58
2023-03-06T13:07:34.610Z,46.93
2023-03-06T13:10:30.178Z,47.43
2023-03-06T13:13:05.212Z,46.79
2023-03-06T13:15:47.103Z,47.98
2023-03-06T13:18:25.125Z,47.85
2023-03-06T13:20:58.108Z,48.43
2023-03-06T13:23:35.234Z,49.27
2023-03-06T13:26:13.159Z,50.34
2023-03-06T13:28:51.444Z,50.34
2023-03-06T13:31:56.116Z,50.18
2023-03-06T13:34:31.959Z,49.72
2023-03-06T13:37:23.425Z,49.60
2023-03-06T13:39:55.583Z,49.77
2023-03-06T13:42:40.210Z,49.54
2023-03-06T13:45:26.147Z,49.87
2023-03-06T13:48:21.408Z,49.64
2023-03-06T13:50:56.534Z,49.31
2023-03-06T13:53:41.484Z,48.78
2023-03-06T13:56:51.007Z,48.57
2023-03-06T14:00:25.197Z,49.27
2023-03-06T14:03:47.985Z,49.48
2023-03-06T14:06:37.637Z,50.05
2023-03-06T14:09:22.888Z,50.09
2023-03-06T14:12:08.260Z,50.34
2023-03-06T14:14:49.517Z,50.22
2023-03-06T14:17:29.850Z,50.77
2023-03-06T14:20:14.254Z,50.51
2023-03-06T14:22:49.915Z,49.92
2023-03-06T14:25:31.403Z,50.32
2023-03-06T14:28:13.799Z,50.08
2023-03-06T14:30:51.040Z,50.55
2023-03-06T14:33:44.398Z,50.81
2023-03-06T14:36:20.394Z,50.72
2023-03-06T14:38:59.512Z,50.87
2023-03-06T14:41:34.681Z,51.15
2023-03-06T14:44:22.869Z,50.77
2023-03-06T14:46:57.092Z,51.30
2023-03-06T14:49:29.117Z,50.54
2023-03-06T14:52:01.385Z,50.44
2023-03-06T14:54:37.118Z,49.99
2023-03-06T14:57:20.256Z,49.70
2023-03-06T14:59:58.235Z,49.72
2023-03-06T15:02:34.061Z,49.34
2023-03-06T15:05:17.840Z,49.64
2023-03-06T15:07:52.107Z,49.90
2023-03-06T15:10:33.200Z,49.78
2023-03-06T15:13:24.359Z,50.03
2023-03-06T15:16:14.740Z,51.19
2023-03-06T15:18:59.108Z,52.72
2023-03-06T15:21:38.896Z,53.85
2023-03-06T15:24:34.366Z,55.45
2023-03-06T15:27:18.084Z,55.88
2023-03-06T15:29:50.270Z,55.85
2023-03-06T15:32:32.670Z,56.15
2023-03-06T15:35:32.816Z,56.99
2023-03-06T15:38:24.312Z,57.74
2023-03-06T15:41:00.082Z,58.13
2023-03-06T15:43:38.008Z,58.36
2023-03-06T15:46:11.463Z,57.98
2023-03-06T15:49:03.240Z,57.76
2023-03-06T15:51:37.973Z,58.06
2023-03-06T15:54:13.933Z,59.15
2023-03-06T15:56:49.085Z,60.42
2023-03-06T15:59:33.462Z,62.97
2023-03-06T16:02:18.798Z,63.73
2023-03-06T16:04:54.051Z,63.00
2023-03-06T16:07:29.212Z,63.52
2023-03-06T16:10:03.672Z,64.17
2023-03-06T16:12:36.039Z,63.68
2023-03-06T16:15:30.471Z,63.65
2023-03-06T16:18:02.354Z,64.05
2023-03-06T16:20:34.206Z,64.10
2023-03-06T16:23:10.796Z,64.28
2023-03-06T16:25:48.601Z,63.58
2023-03-06T16:28:20.763Z,63.70
2023-03-06T16:30:55.548Z,64.19
2023-03-06T16:33:27.884Z,63.59
2023-03-06T16:36:01.158Z,64.91
2023-03-06T16:38:33.109Z,64.77
2023-03-06T16:41:08.030Z,65.20
2023-03-06T16:43:39.867Z,65.02
2023-03-06T16:46:17.145Z,65.43
2023-03-06T16:48:49.125Z,65.59
2023-03-06T16:51:26.693Z,65.76
2023-03-06T16:53:59.431Z,66.12
2023-03-06T16:56:35.398Z,66.86
2023-03-06T16:59:10.116Z,66.66
2023-03-06T17:01:43.439Z,66.37
2023-03-06T17:04:15.792Z,66.66
2023-03-06T17:06:47.926Z,67.02
2023-03-06T17:09:29.833Z,66.61
2023-03-06T17:12:01.971Z,67.58
2023-03-06T17:14:38.513Z,67.39
2023-03-06T17:17:10.424Z,67.02
2023-03-06T17:19:50.775Z,66.91
2023-03-06T17:22:24.880Z,67.13
2023-03-06T17:24:58.296Z,66.39
2023-03-06T17:27:30.405Z,66.12
2023-03-06T17:30:03.111Z,65.60
2023-03-06T17:32:37.884Z,65.62
2023-03-06T17:35:10.814Z,65.94
2023-03-06T17:37:42.698Z,65.96
2023-03-06T17:40:15.782Z,65.91
2023-03-06T17:42:47.574Z,65.73
2023-03-06T17:45:19.400Z,65.34
2023-03-06T17:47:56.854Z,65.59
2023-03-06T17:50:28.697Z,65.25
2023-03-06T17:53:00.459Z,65.31
2023-03-06T17:55:32.710Z,65.44
2023-03-06T17:58:05.684Z,64.92
2023-03-06T18:00:38.790Z,65.18
2023-03-06T18:03:13.181Z,65.20
2023-03-06T18:05:45.508Z,65.48
2023-03-06T18:08:20.508Z,65.76
2023-03-06T18:10:52.922Z,65.30
2023-03-06T18:13:24.886Z,65.88
2023-03-06T18:15:57.277Z,65.41
2023-03-06T18:18:34.960Z,65.80
2023-03-06T18:21:11.178Z,65.49
2023-03-06T18:23:43.213Z,65.76
2023-03-06T18:26:21.892Z,66.00
2023-03-06T18:28:56.273Z,65.69
2023-03-06T18:31:39.224Z,66.37
2023-03-06T18:34:13.889Z,65.84
2023-03-06T18:36:53.120Z,65.97
2023-03-06T18:39:27.826Z,66.03
2023-03-06T18:41:59.998Z,66.16
2023-03-06T18:44:34.650Z,65.56
2023-03-06T18:47:06.672Z,66.00
2023-03-06T18:49:40.565Z,65.72
2023-03-06T18:52:16.343Z,65.91
2023-03-06T18:54:50.942Z,66.42
2023-03-06T18:57:24.065Z,66.00
2023-03-06T19:00:02.299Z,66.35
2023-03-06T19:02:47.479Z,66.59
2023-03-06T19:05:22.092Z,66.24
2023-03-06T19:07:58.573Z,66.25
2023-03-06T19:10:31.655Z,65.90
2023-03-06T19:13:05.295Z,66.52
2023-03-06T19:15:45.877Z,66.14
2023-03-06T19:18:18.526Z,65.79
2023-03-06T19:20:56.995Z,65.52
2023-03-06T19:23:32.071Z,65.50
2023-03-06T19:26:07.595Z,65.48
2023-03-06T19:28:45.096Z,65.94
2023-03-06T19:31:25.266Z,65.40
2023-03-06T19:34:00.332Z,64.76
2023-03-06T19:36:34.328Z,65.34
2023-03-06T19:39:07.895Z,64.90
2023-03-06T19:41:39.840Z,64.65
2023-03-06T19:44:13.001Z,64.92
2023-03-06T19:46:44.934Z,64.66
2023-03-06T19:49:18.261Z,64.46
2023-03-06T19:51:50.211Z,64.90
2023-03-06T19:54:23.588Z,66.45
2023-03-06T19:56:55.498Z,64.59
2023-03-06T19:59:31.241Z,67.82
2023-03-06T20:02:03.790Z,63.91
2023-03-06T20:04:36.916Z,63.38
2023-03-06T20:07:11.660Z,63.50
2023-03-06T20:09:43.836Z,63.79
2023-03-06T20:12:21.785Z,63.30
2023-03-06T20:14:53.827Z,63.58
2023-03-06T20:17:26.128Z,63.04
2023-03-06T20:19:59.197Z,63.64
2023-03-06T20:22:38.565Z,62.77
2023-03-06T20:25:10.711Z,63.18
2023-03-06T20:27:52.145Z,63.41
2023-03-06T20:30:31.521Z,63.40
2023-03-06T20:33:10.637Z,63.44
2023-03-06T20:35:44.498Z,63.00
2023-03-06T20:38:16.667Z,62.98
2023-03-06T20:40:48.614Z,63.19
2023-03-06T20:43:26.404Z,63.13
2023-03-06T20:46:02.694Z,62.90
2023-03-06T20:48:34.798Z,63.57
2023-03-06T20:51:32.156Z,63.26
2023-03-06T20:54:04.171Z,64.15
2023-03-06T20:56:39.638Z,63.23
2023-03-06T20:59:12.615Z,63.23
2023-03-06T21:01:46.075Z,63.42
2023-03-06T21:04:18.075Z,63.97
2023-03-06T21:06:55.745Z,63.40
2023-03-06T21:09:27.660Z,64.01
2023-03-06T21:11:59.882Z,63.90
2023-03-06T21:14:34.900Z,63.82
2023-03-06T21:17:06.767Z,64.09
2023-03-06T21:19:38.636Z,63.94
2023-03-06T21:22:10.774Z,63.64
2023-03-06T21:24:43.619Z,63.58
2023-03-06T21:27:15.980Z,63.59
2023-03-06T21:29:50.376Z,64.04
2023-03-06T21:32:25.380Z,64.32
2023-03-06T21:34:57.326Z,63.85
2023-03-06T21:37:32.313Z,63.81
2023-03-06T21:40:08.008Z,63.64
2023-03-06T21:42:40.737Z,64.06
2023-03-06T21:45:13.696Z,63.90
2023-03-06T21:47:49.025Z,64.05
2023-03-06T21:50:22.158Z,63.95
2023-03-06T21:52:56.448Z,63.77
2023-03-06T21:55:29.381Z,63.65
2023-03-06T21:58:10.166Z,64.24
2023-03-06T22:00:47.297Z,63.31
2023-03-06T22:03:19.256Z,63.81
2023-03-06T22:05:52.177Z,63.38
2023-03-06T22:08:25.508Z,64.07
2023-03-06T22:11:05.457Z,63.87
2023-03-06T22:13:40.357Z,64.00
2023-03-06T22:16:15.678Z,63.96
2023-03-06T22:18:49.538Z,63.53
2023-03-06T22:21:22.814Z,63.46
2023-03-06T22:23:59.920Z,63.17
2023-03-06T22:26:31.955Z,63.33
2023-03-06T22:29:07.033Z,63.52
2023-03-06T22:31:40.451Z,63.70
2023-03-06T22:34:15.645Z,63.31
2023-03-06T22:36:47.790Z,63.79
2023-03-06T22:39:20.013Z,63.50
2023-03-06T22:41:54.577Z,63.96
2023-03-06T22:44:29.344Z,63.93
2023-03-06T22:47:01.226Z,63.08
2023-03-06T22:49:33.457Z,64.03
2023-03-06T22:52:07.940Z,64.00
2023-03-06T22:54:48.771Z,64.30
2023-03-06T22:57:20.649Z,64.38
2023-03-06T22:59:55.509Z,64.17
2023-03-06T23:02:32.065Z,63.97
2023-03-06T23:05:04.121Z,64.63
2023-03-06T23:07:36.505Z,64.79
2023-03-06T23:10:09.109Z,64.86
2023-03-06T23:12:59.789Z,64.88
2023-03-06T23:15:49.975Z,64.53
2023-03-06T23:18:41.138Z,64.52
2023-03-06T23:21:31.784Z,64.03
2023-03-06T23:24:25.354Z,64.83
2023-03-06T23:26:57.094Z,64.32
2023-03-06T23:29:30.837Z,64.68
2023-03-06T23:32:06.608Z,64.48
2023-03-06T23:34:43.067Z,64.49
2023-03-06T23:37:16.105Z,64.95
2023-03-06T23:39:50.602Z,64.93
2023-03-06T23:42:25.680Z,64.55
2023-03-06T23:45:03.395Z,64.91
2023-03-06T23:47:35.362Z,64.55
2023-03-06T23:50:07.707Z,64.88
2023-03-06T23:52:40.373Z,65.02
2023-03-06T23:55:12.433Z,64.85
2023-03-06T23:57:47.504Z,64.95
